createdAt,value
2023-05-21T00:01:40.518Z,102074.97
2023-05-21T00:04:07.884Z,102079.22
2023-05-21T00:06:37.575Z,102065.38
2023-05-21T00:09:05.829Z,102069.41
2023-05-21T00:11:32.780Z,102067.78
2023-05-21T00:13:59.349Z,102071.25
2023-05-21T00:16:26.126Z,102072.06
2023-05-21T00:18:54.354Z,102071.81
2023-05-21T00:21:26.300Z,102069.66
2023-05-21T00:23:57.022Z,102074.16
2023-05-21T00:26:26.626Z,102065.06
2023-05-21T00:28:53.213Z,102064.81
2023-05-21T00:31:19.758Z,102063.19
2023-05-21T00:33:46.530Z,102051.75
2023-05-21T00:36:14.590Z,102057.56
2023-05-21T00:38:45.682Z,102051.91
2023-05-21T00:41:13.179Z,102063.59
2023-05-21T00:43:42.234Z,102051.59
2023-05-21T00:46:12.177Z,102054.25
2023-05-21T00:48:39.699Z,102052.66
2023-05-21T00:51:07.257Z,102042.75
2023-05-21T00:53:37.338Z,102040.09
2023-05-21T00:56:04.525Z,102046.44
2023-05-21T00:58:33.427Z,102039.50
2023-05-21T01:01:06.762Z,102042.75
2023-05-21T01:03:38.452Z,102042.97
2023-05-21T01:06:06.403Z,102040.31
2023-05-21T01:08:34.909Z,102038.72
2023-05-21T01:11:03.262Z,102037.91
2023-05-21T01:13:31.415Z,102035.97
2023-05-21T01:15:59.669Z,102038.06
2023-05-21T01:18:26.732Z,102033.56
2023-05-21T01:20:53.768Z,102028.25
2023-05-21T01:23:20.712Z,102024.72
2023-05-21T01:25:47.703Z,102027.38
2023-05-21T01:28:14.523Z,102022.56
2023-05-21T01:30:42.775Z,102028.66
2023-05-21T01:33:20.359Z,102021.97
2023-05-21T01:36:05.647Z,102019.56
2023-05-21T01:38:43.743Z,102015.53
2023-05-21T01:41:17.954Z,102026.16
2023-05-21T01:43:46.524Z,102021.31
2023-05-21T01:46:20.013Z,102020.16
2023-05-21T01:48:48.240Z,102023.06
2023-05-21T01:51:14.867Z,102021.44
2023-05-21T01:53:41.602Z,102021.13
2023-05-21T01:56:08.349Z,102015.81
2023-05-21T01:58:34.932Z,102020.78
2023-05-21T02:01:02.863Z,102017.09
2023-05-21T02:03:31.168Z,102015.97
2023-05-21T02:05:57.870Z,102012.75
2023-05-21T02:08:25.610Z,102020.97
2023-05-21T02:10:52.354Z,102013.47
2023-05-21T02:13:25.731Z,102014.75
2023-05-21T02:15:54.819Z,102012.34
2023-05-21T02:18:22.221Z,102013.63
2023-05-21T02:20:48.985Z,102014.19
2023-05-21T02:23:15.844Z,102006.13
2023-05-21T02:25:42.604Z,102006.94
2023-05-21T02:28:09.192Z,102012.00
2023-05-21T02:30:36.574Z,102003.47
2023-05-21T02:33:03.277Z,102000.16
2023-05-21T02:35:29.940Z,102009.97
2023-05-21T02:37:59.440Z,102014.25
2023-05-21T02:40:26.362Z,102018.97
2023-05-21T02:42:52.905Z,102020.59
2023-05-21T02:45:19.534Z,102011.25
2023-05-21T02:47:46.193Z,102008.59
2023-05-21T02:50:14.194Z,102013.91
2023-05-21T02:52:41.681Z,102003.78
2023-05-21T02:55:08.695Z,102007.22
2023-05-21T02:57:35.265Z,102007.69
2023-05-21T03:00:01.803Z,102009.78
2023-05-21T03:02:28.416Z,102013.25
2023-05-21T03:04:55.604Z,102000.44
2023-05-21T03:07:22.554Z,101997.03
2023-05-21T03:09:49.147Z,102001.75
2023-05-21T03:12:15.802Z,102000.16
2023-05-21T03:14:44.101Z,102006.72
2023-05-21T03:17:13.877Z,101998.88
2023-05-21T03:19:41.763Z,102002.00
2023-05-21T03:22:08.438Z,101992.19
2023-05-21T03:24:35.336Z,101991.94
2023-05-21T03:27:02.350Z,101996.75
2023-05-21T03:29:29.167Z,101989.84
2023-05-21T03:31:56.200Z,101988.78
2023-05-21T03:34:23.313Z,101984.28
2023-05-21T03:36:50.623Z,101992.03
2023-05-21T03:39:17.419Z,101985.66
2023-05-21T03:41:44.164Z,101978.75
2023-05-21T03:44:10.772Z,101981.34
2023-05-21T03:46:37.528Z,101984.28
2023-05-21T03:49:04.248Z,101983.50
2023-05-21T03:51:31.807Z,101978.75
2023-05-21T03:53:59.445Z,101987.28
2023-05-21T03:56:26.337Z,101981.16
2023-05-21T03:58:53.098Z,101979.09
2023-05-21T04:01:19.745Z,101980.94
2023-05-21T04:03:46.667Z,101979.88
2023-05-21T04:06:13.824Z,101975.16
2023-05-21T04:08:40.358Z,101976.19
2023-05-21T04:11:06.985Z,101980.94
2023-05-21T04:13:33.851Z,101983.25
2023-05-21T04:16:00.633Z,101982.16
2023-05-21T04:18:27.441Z,101986.06
2023-05-21T04:20:54.120Z,101980.78
2023-05-21T04:23:23.485Z,101984.13
2023-05-21T04:25:50.917Z,101984.94
2023-05-21T04:28:21.205Z,101976.16
2023-05-21T04:30:48.038Z,101974.56
2023-05-21T04:33:18.526Z,101981.72
2023-05-21T04:35:47.351Z,101992.09
2023-05-21T04:38:14.272Z,101992.56
2023-05-21T04:40:40.898Z,101988.88
2023-05-21T04:43:08.240Z,101991.53
2023-05-21T04:45:35.243Z,101992.91
2023-05-21T04:48:03.055Z,101994.97
2023-05-21T04:50:30.992Z,101993.38
2023-05-21T04:52:58.922Z,101994.41
2023-05-21T04:55:25.936Z,101988.88
2023-05-21T04:57:53.057Z,101998.66
2023-05-21T05:00:20.807Z,101989.44
2023-05-21T05:02:47.497Z,101989.66
2023-05-21T05:05:14.150Z,101993.38
2023-05-21T05:07:40.901Z,101994.97
2023-05-21T05:10:08.146Z,102000.84
2023-05-21T05:12:34.672Z,101998.78
2023-05-21T05:15:01.294Z,102006.25
2023-05-21T05:17:27.995Z,102004.16
2023-05-21T05:19:54.717Z,101993.78
2023-05-21T05:22:21.334Z,101994.09
2023-05-21T05:24:47.874Z,101995.47
2023-05-21T05:27:14.469Z,101997.09
2023-05-21T05:29:41.071Z,101996.63
2023-05-21T05:32:08.054Z,101988.88
2023-05-21T05:34:35.025Z,101992.34
2023-05-21T05:37:03.016Z,101994.75
2023-05-21T05:39:29.984Z,101997.75
2023-05-21T05:41:56.695Z,101987.94
2023-05-21T05:44:23.227Z,101992.53
2023-05-21T05:46:49.794Z,101995.19
2023-05-21T05:49:16.826Z,101994.38
2023-05-21T05:51:43.342Z,101992.31
2023-05-21T05:54:09.962Z,102002.44
2023-05-21T05:56:36.520Z,101994.25
2023-05-21T05:59:03.119Z,101996.09
2023-05-21T06:01:29.738Z,101987.09
2023-05-21T06:03:57.443Z,101991.69
2023-05-21T06:06:24.284Z,101987.50
2023-05-21T06:08:50.933Z,101988.38
2023-05-21T06:11:18.962Z,101981.06
2023-05-21T06:13:45.905Z,101982.50
2023-05-21T06:16:12.733Z,101980.31
2023-05-21T06:18:39.323Z,101985.47
2023-05-21T06:21:06.019Z,101977.25
2023-05-21T06:23:32.694Z,101991.13
2023-05-21T06:25:59.317Z,101982.19
2023-05-21T06:28:25.865Z,101983.09
2023-05-21T06:30:52.537Z,101988.25
2023-05-21T06:33:19.252Z,101982.56
2023-05-21T06:35:46.029Z,101980.03
2023-05-21T06:38:12.525Z,101977.13
2023-05-21T06:40:39.071Z,101977.63
2023-05-21T06:43:05.686Z,101987.13
2023-05-21T06:45:32.245Z,101987.13
2023-05-21T06:47:58.886Z,101980.28
2023-05-21T06:50:25.484Z,101978.19
2023-05-21T06:52:52.055Z,101980.28
2023-05-21T06:55:18.655Z,101975.22
2023-05-21T06:57:45.245Z,101978.25
2023-05-21T07:00:12.569Z,101972.22
2023-05-21T07:02:39.283Z,101972.75
2023-05-21T07:05:06.289Z,101975.19
2023-05-21T07:07:34.889Z,101971.72
2023-05-21T07:10:01.528Z,101970.41
2023-05-21T07:12:28.205Z,101967.50
2023-05-21T07:14:54.831Z,101956.97
2023-05-21T07:17:21.325Z,101961.06
2023-05-21T07:19:47.853Z,101955.38
2023-05-21T07:22:14.795Z,101969.84
2023-05-21T07:24:41.637Z,101964.81
2023-05-21T07:27:17.740Z,101966.44
2023-05-21T07:29:51.785Z,101975.34
2023-05-21T07:32:18.306Z,101974.09
2023-05-21T07:34:44.953Z,101974.16
2023-05-21T07:37:11.530Z,101974.16
2023-05-21T07:39:38.118Z,101974.13
2023-05-21T07:42:04.915Z,101976.06
2023-05-21T07:44:31.969Z,101959.78
2023-05-21T07:46:58.550Z,101961.75
2023-05-21T07:49:25.155Z,101964.72
2023-05-21T07:51:51.739Z,101959.47
2023-05-21T07:54:19.714Z,101959.53
2023-05-21T07:56:46.453Z,101967.53
2023-05-21T07:59:17.118Z,101964.44
2023-05-21T08:01:44.250Z,101951.69
2023-05-21T08:04:11.208Z,101961.81
2023-05-21T08:06:37.923Z,101953.88
2023-05-21T08:09:06.266Z,101944.81
2023-05-21T08:11:33.155Z,101944.34
2023-05-21T08:13:59.732Z,101946.19
2023-05-21T08:16:26.678Z,101946.41
2023-05-21T08:18:53.342Z,101934.16
2023-05-21T08:21:19.996Z,101936.09
2023-05-21T08:23:46.567Z,101935.13
2023-05-21T08:26:13.217Z,101941.59
2023-05-21T08:28:39.838Z,101940.78
2023-05-21T08:31:06.496Z,101940.56
2023-05-21T08:33:37.146Z,101934.97
2023-05-21T08:36:05.618Z,101951.44
2023-05-21T08:38:32.358Z,101942.91
2023-05-21T08:41:00.437Z,101932.25
2023-05-21T08:43:28.417Z,101934.13
2023-05-21T08:45:56.234Z,101943.75
2023-05-21T08:48:24.208Z,101941.94
2023-05-21T08:50:53.013Z,101958.00
2023-05-21T08:53:27.321Z,101940.41
2023-05-21T08:55:55.866Z,101940.41
2023-05-21T08:58:22.669Z,101957.03
2023-05-21T09:00:49.392Z,101943.69
2023-05-21T09:03:16.410Z,101952.00
2023-05-21T09:05:44.503Z,101952.31
2023-05-21T09:08:21.778Z,101952.31
2023-05-21T09:10:50.658Z,101956.31
2023-05-21T09:13:18.579Z,101959.25
2023-05-21T09:15:45.906Z,101949.66
2023-05-21T09:18:13.658Z,101948.56
2023-05-21T09:20:40.654Z,101945.88
2023-05-21T09:23:12.763Z,101940.56
2023-05-21T09:25:39.784Z,101933.63
2023-05-21T09:28:12.189Z,101931.47
2023-05-21T09:30:44.708Z,101935.19
2023-05-21T09:33:12.318Z,101935.75
2023-05-21T09:35:46.361Z,101933.88
2023-05-21T09:38:13.129Z,101931.97
2023-05-21T09:40:44.566Z,101922.88
2023-05-21T09:43:14.915Z,101937.84
2023-05-21T09:45:51.480Z,101920.22
2023-05-21T09:48:32.395Z,101918.03
2023-05-21T09:51:12.054Z,101916.94
2023-05-21T09:53:53.361Z,101917.50
2023-05-21T09:56:24.565Z,101906.25
2023-05-21T09:58:54.634Z,101904.59
2023-05-21T10:01:21.867Z,101902.47
2023-05-21T10:03:53.982Z,101907.00
2023-05-21T10:06:21.728Z,101894.19
2023-05-21T10:08:52.007Z,101898.22
2023-05-21T10:11:19.652Z,101894.75
2023-05-21T10:13:53.111Z,101911.03
2023-05-21T10:16:19.812Z,101895.00
2023-05-21T10:18:49.180Z,101899.00
2023-05-21T10:21:16.477Z,101893.41
2023-05-21T10:23:44.447Z,101890.72
2023-05-21T10:26:12.697Z,101878.94
2023-05-21T10:28:40.078Z,101884.78
2023-05-21T10:31:07.039Z,101883.06
2023-05-21T10:33:35.771Z,101867.03
2023-05-21T10:36:02.633Z,101884.13
2023-05-21T10:38:29.902Z,101881.41
2023-05-21T10:40:57.494Z,101879.47
2023-05-21T10:43:47.281Z,101869.38
2023-05-21T10:46:32.272Z,101863.88
2023-05-21T10:49:04.544Z,101870.81
2023-05-21T10:51:59.269Z,101865.78
2023-05-21T10:55:02.033Z,101878.16
2023-05-21T10:58:01.488Z,101871.47
2023-05-21T11:00:28.758Z,101862.13
2023-05-21T11:02:55.913Z,101864.25
2023-05-21T11:05:50.856Z,101862.72
2023-05-21T11:08:30.548Z,101871.50
2023-05-21T11:10:58.983Z,101866.22
2023-05-21T11:13:45.239Z,101859.88
2023-05-21T11:16:18.304Z,101869.22
2023-05-21T11:18:44.935Z,101859.84
2023-05-21T11:21:17.108Z,101864.00
2023-05-21T11:23:54.432Z,101858.59
2023-05-21T11:26:26.240Z,101856.91
2023-05-21T11:29:05.056Z,101850.91
2023-05-21T11:31:40.106Z,101840.91
2023-05-21T11:34:30.030Z,101843.78
2023-05-21T11:37:18.694Z,101833.53
2023-05-21T11:39:45.429Z,101831.88
2023-05-21T11:42:12.069Z,101830.28
2023-05-21T11:44:48.798Z,101825.16
2023-05-21T11:47:17.891Z,101841.28
2023-05-21T11:49:45.128Z,101821.53
2023-05-21T11:52:12.950Z,101819.44
2023-05-21T11:54:51.901Z,101821.91
2023-05-21T11:57:19.588Z,101811.81
2023-05-21T11:59:47.106Z,101814.78
2023-05-21T12:02:18.923Z,101820.19
2023-05-21T12:04:48.442Z,101811.41
2023-05-21T12:07:17.147Z,101808.66
2023-05-21T12:09:45.769Z,101809.34
2023-05-21T12:12:15.181Z,101811.34
2023-05-21T12:14:49.780Z,101805.34
2023-05-21T12:17:18.874Z,101806.72
2023-05-21T12:19:46.705Z,101800.16
2023-05-21T12:22:15.449Z,101790.63
2023-05-21T12:24:44.045Z,101786.56
2023-05-21T12:27:13.536Z,101784.97
2023-05-21T12:29:42.727Z,101789.03
2023-05-21T12:32:14.324Z,101781.94
2023-05-21T12:34:48.773Z,101782.28
2023-05-21T12:37:23.500Z,101793.09
2023-05-21T12:39:55.183Z,101779.03
2023-05-21T12:42:35.493Z,101783.03
2023-05-21T12:45:11.333Z,101781.06
2023-05-21T12:47:38.241Z,101790.19
2023-05-21T12:50:14.064Z,101777.88
2023-05-21T12:52:43.194Z,101781.94
2023-05-21T12:55:13.327Z,101783.59
2023-05-21T12:57:39.844Z,101775.69
2023-05-21T13:00:12.653Z,101775.13
2023-05-21T13:02:41.124Z,101784.75
2023-05-21T13:05:09.773Z,101786.88
2023-05-21T13:07:38.250Z,101780.41
2023-05-21T13:10:06.158Z,101796.34
2023-05-21T13:12:34.215Z,101783.97
2023-05-21T13:15:02.625Z,101776.84
2023-05-21T13:17:29.359Z,101779.38
2023-05-21T13:20:16.071Z,101775.09
2023-05-21T13:22:48.032Z,101781.13
2023-05-21T13:25:16.783Z,101774.25
2023-05-21T13:27:44.140Z,101770.28
2023-05-21T13:30:11.777Z,101764.63
2023-05-21T13:32:39.634Z,101761.53
2023-05-21T13:35:06.849Z,101765.53
2023-05-21T13:37:37.766Z,101758.84
2023-05-21T13:40:05.956Z,101759.56
2023-05-21T13:42:33.324Z,101758.56
2023-05-21T13:44:59.878Z,101748.69
2023-05-21T13:47:29.773Z,101765.94
2023-05-21T13:49:56.395Z,101753.19
2023-05-21T13:52:23.035Z,101754.78
2023-05-21T13:54:49.655Z,101752.09
2023-05-21T13:57:20.342Z,101765.06
2023-05-21T13:59:51.083Z,101764.97
2023-05-21T14:02:17.725Z,101759.78
2023-05-21T14:04:44.704Z,101751.94
2023-05-21T14:07:14.154Z,101761.09
2023-05-21T14:09:40.787Z,101764.78
2023-05-21T14:12:07.709Z,101758.41
2023-05-21T14:14:34.649Z,101757.31
2023-05-21T14:17:01.305Z,101759.50
2023-05-21T14:19:28.670Z,101765.94
2023-05-21T14:21:56.560Z,101761.09
2023-05-21T14:24:23.170Z,101765.94
2023-05-21T14:26:49.719Z,101752.03
2023-05-21T14:29:24.308Z,101755.22
2023-05-21T14:31:50.930Z,101755.72
2023-05-21T14:34:17.505Z,101760.50
2023-05-21T14:36:44.071Z,101753.25
2023-05-21T14:39:10.693Z,101764.66
2023-05-21T14:41:39.550Z,101760.38
2023-05-21T14:44:06.089Z,101746.50
2023-05-21T14:46:32.999Z,101742.91
2023-05-21T14:49:00.831Z,101733.44
2023-05-21T14:51:27.607Z,101745.47
2023-05-21T14:53:54.343Z,101738.84
2023-05-21T14:56:21.871Z,101732.44
2023-05-21T14:58:48.689Z,101733.00
2023-05-21T15:01:15.251Z,101730.72
2023-05-21T15:03:42.119Z,101733.56
2023-05-21T15:06:09.159Z,101728.50
2023-05-21T15:08:35.905Z,101723.97
2023-05-21T15:11:02.610Z,101733.19
2023-05-21T15:13:29.380Z,101723.19
2023-05-21T15:15:56.208Z,101710.28
2023-05-21T15:18:24.720Z,101718.63
2023-05-21T15:20:51.635Z,101717.69
2023-05-21T15:23:18.385Z,101717.41
2023-05-21T15:25:45.506Z,101722.91
2023-05-21T15:28:12.448Z,101721.59
2023-05-21T15:30:41.054Z,101714.66
2023-05-21T15:33:08.117Z,101720.88
2023-05-21T15:35:36.385Z,101716.59
2023-05-21T15:38:03.456Z,101721.59
2023-05-21T15:40:30.116Z,101718.38
2023-05-21T15:42:57.075Z,101707.22
2023-05-21T15:45:24.670Z,101712.56
2023-05-21T15:47:51.386Z,101707.13
2023-05-21T15:50:17.970Z,101703.22
2023-05-21T15:52:44.582Z,101701.63
2023-05-21T15:55:11.169Z,101700.53
2023-05-21T15:57:37.791Z,101692.50
2023-05-21T16:00:05.108Z,101688.22
2023-05-21T16:02:31.993Z,101696.03
2023-05-21T16:04:58.656Z,101691.47
2023-05-21T16:07:25.387Z,101690.75
2023-05-21T16:09:51.983Z,101690.03
2023-05-21T16:12:18.620Z,101688.94
2023-05-21T16:14:48.437Z,101687.91
2023-05-21T16:17:15.337Z,101687.13
2023-05-21T16:19:42.065Z,101692.28
2023-05-21T16:22:10.658Z,101691.16
2023-05-21T16:24:37.469Z,101699.94
2023-05-21T16:27:04.171Z,101704.78
2023-05-21T16:29:30.848Z,101712.63
2023-05-21T16:31:57.415Z,101711.41
2023-05-21T16:34:24.015Z,101700.22
2023-05-21T16:36:51.782Z,101703.19
2023-05-21T16:39:18.387Z,101704.84
2023-05-21T16:41:44.941Z,101695.81
2023-05-21T16:44:11.623Z,101698.44
2023-05-21T16:46:38.378Z,101698.69
2023-05-21T16:49:05.235Z,101704.59
2023-05-21T16:51:32.028Z,101692.56
2023-05-21T16:53:58.686Z,101693.59
2023-05-21T16:56:27.193Z,101698.91
2023-05-21T16:58:53.770Z,101694.63
2023-05-21T17:01:24.563Z,101693.88
2023-05-21T17:03:56.669Z,101701.06
2023-05-21T17:06:25.994Z,101700.38
2023-05-21T17:08:52.559Z,101698.81
2023-05-21T17:11:19.434Z,101702.63
2023-05-21T17:13:49.106Z,101703.78
2023-05-21T17:16:15.790Z,101703.94
2023-05-21T17:18:42.510Z,101706.41
2023-05-21T17:21:11.166Z,101701.78
2023-05-21T17:23:39.957Z,101712.53
2023-05-21T17:26:08.384Z,101700.31
2023-05-21T17:28:42.731Z,101721.75
2023-05-21T17:31:10.161Z,101701.50
2023-05-21T17:33:37.417Z,101708.72
2023-05-21T17:36:04.349Z,101704.75
2023-05-21T17:38:37.442Z,101699.16
2023-05-21T17:41:04.385Z,101703.47
2023-05-21T17:43:32.116Z,101698.66
2023-05-21T17:45:58.969Z,101693.13
2023-05-21T17:48:28.295Z,101701.69
2023-05-21T17:50:55.740Z,101693.16
2023-05-21T17:53:22.840Z,101692.91
2023-05-21T17:55:51.712Z,101703.41
2023-05-21T17:58:18.441Z,101703.97
2023-05-21T18:00:45.201Z,101697.84
2023-05-21T18:03:13.894Z,101706.94
2023-05-21T18:05:40.518Z,101707.75
2023-05-21T18:08:10.129Z,101708.56
2023-05-21T18:10:36.949Z,101711.28
2023-05-21T18:13:06.514Z,101707.03
2023-05-21T18:15:34.188Z,101713.50
2023-05-21T18:18:01.033Z,101713.22
2023-05-21T18:20:27.943Z,101707.31
2023-05-21T18:22:54.616Z,101710.00
2023-05-21T18:25:21.469Z,101700.94
2023-05-21T18:27:48.378Z,101712.19
2023-05-21T18:30:17.539Z,101706.59
2023-05-21T18:32:44.700Z,101706.34
2023-05-21T18:35:17.816Z,101704.19
2023-05-21T18:37:48.020Z,101711.16
2023-05-21T18:40:15.118Z,101708.50
2023-05-21T18:42:43.485Z,101710.66
2023-05-21T18:45:13.333Z,101708.25
2023-05-21T18:47:40.594Z,101713.34
2023-05-21T18:50:12.841Z,101714.44
2023-05-21T18:52:39.485Z,101711.03
2023-05-21T18:55:06.740Z,101707.03
2023-05-21T18:57:34.765Z,101699.56
2023-05-21T19:00:01.585Z,101699.06
2023-05-21T19:02:29.718Z,101713.75
2023-05-21T19:04:56.503Z,101711.91
2023-05-21T19:07:23.517Z,101706.56
2023-05-21T19:09:50.238Z,101711.66
2023-05-21T19:12:17.074Z,101709.31
2023-05-21T19:14:49.050Z,101706.66
2023-05-21T19:17:36.505Z,101720.28
2023-05-21T19:20:05.251Z,101718.41
2023-05-21T19:22:35.283Z,101714.69
2023-05-21T19:25:01.959Z,101718.44
2023-05-21T19:27:29.595Z,101710.47
2023-05-21T19:29:56.296Z,101713.09
2023-05-21T19:32:23.823Z,101712.84
2023-05-21T19:34:52.470Z,101714.97
2023-05-21T19:37:19.150Z,101717.66
2023-05-21T19:39:49.628Z,101716.34
2023-05-21T19:42:17.349Z,101720.06
2023-05-21T19:44:44.041Z,101727.81
2023-05-21T19:47:10.705Z,101730.47
2023-05-21T19:49:37.338Z,101722.47
2023-05-21T19:52:04.693Z,101725.91
2023-05-21T19:54:31.274Z,101732.56
2023-05-21T19:56:57.988Z,101737.66
2023-05-21T19:59:24.569Z,101733.13
2023-05-21T20:01:51.632Z,101740.84
2023-05-21T20:04:18.397Z,101739.22
2023-05-21T20:06:45.024Z,101736.56
2023-05-21T20:09:13.320Z,101739.19
2023-05-21T20:11:42.116Z,101744.00
2023-05-21T20:14:09.042Z,101742.34
2023-05-21T20:16:36.687Z,101744.22
2023-05-21T20:19:03.892Z,101745.53
2023-05-21T20:21:31.867Z,101742.31
2023-05-21T20:23:58.581Z,101745.22
2023-05-21T20:26:26.291Z,101742.03
2023-05-21T20:28:53.061Z,101739.88
2023-05-21T20:31:20.265Z,101740.66
2023-05-21T20:33:46.912Z,101742.25
2023-05-21T20:36:15.341Z,101739.56
2023-05-21T20:38:42.193Z,101743.81
2023-05-21T20:41:08.883Z,101740.91
2023-05-21T20:43:37.318Z,101737.69
2023-05-21T20:46:05.748Z,101731.53
2023-05-21T20:48:32.499Z,101740.59
2023-05-21T20:51:00.228Z,101733.63
2023-05-21T20:53:27.072Z,101732.81
2023-05-21T20:55:54.800Z,101727.72
2023-05-21T20:58:24.025Z,101733.06
2023-05-21T21:00:51.060Z,101723.44
2023-05-21T21:03:18.512Z,101721.84
2023-05-21T21:05:45.092Z,101729.28
2023-05-21T21:08:12.363Z,101719.97
2023-05-21T21:10:41.468Z,101725.56
2023-05-21T21:13:08.425Z,101727.66
2023-05-21T21:15:35.458Z,101729.78
2023-05-21T21:18:02.140Z,101727.63
2023-05-21T21:20:28.723Z,101723.88
2023-05-21T21:22:55.796Z,101724.13
2023-05-21T21:25:22.355Z,101719.06
2023-05-21T21:27:49.166Z,101720.41
2023-05-21T21:30:15.724Z,101709.47
2023-05-21T21:32:42.365Z,101718.53
2023-05-21T21:35:10.003Z,101705.75
2023-05-21T21:37:36.732Z,101712.16
2023-05-21T21:40:03.813Z,101708.69
2023-05-21T21:42:30.445Z,101714.00
2023-05-21T21:44:57.017Z,101706.28
2023-05-21T21:47:23.692Z,101710.00
2023-05-21T21:49:50.382Z,101712.09
2023-05-21T21:52:17.523Z,101707.56
2023-05-21T21:54:44.148Z,101713.13
2023-05-21T21:57:10.805Z,101714.19
2023-05-21T21:59:38.581Z,101702.91
2023-05-21T22:02:05.830Z,101714.63
2023-05-21T22:04:32.409Z,101712.75
2023-05-21T22:06:59.000Z,101714.88
2023-05-21T22:09:25.526Z,101714.63
2023-05-21T22:11:53.422Z,101709.25
2023-05-21T22:14:20.153Z,101709.16
2023-05-21T22:16:47.831Z,101707.56
2023-05-21T22:19:15.995Z,101704.41
2023-05-21T22:21:43.246Z,101696.94
2023-05-21T22:24:20.637Z,101700.59
2023-05-21T22:26:56.347Z,101700.59
2023-05-21T22:29:22.865Z,101696.88
2023-05-21T22:31:49.416Z,101690.50
2023-05-21T22:34:15.965Z,101689.66
2023-05-21T22:36:43.524Z,101690.47
2023-05-21T22:39:10.288Z,101695.22
2023-05-21T22:41:36.888Z,101690.41
2023-05-21T22:44:03.532Z,101692.53
2023-05-21T22:46:30.216Z,101686.91
2023-05-21T22:48:56.838Z,101695.69
2023-05-21T22:51:23.850Z,101688.75
2023-05-21T22:53:50.469Z,101689.81
2023-05-21T22:56:17.025Z,101689.81
2023-05-21T22:58:43.880Z,101683.75
2023-05-21T23:01:10.508Z,101688.50
2023-05-21T23:03:37.091Z,101698.38
2023-05-21T23:06:03.931Z,101694.16
2023-05-21T23:08:30.440Z,101708.81
2023-05-21T23:10:56.920Z,101714.63
2023-05-21T23:13:23.518Z,101702.94
2023-05-21T23:15:50.762Z,101714.88
2023-05-21T23:18:17.359Z,101730.88
2023-05-21T23:20:44.061Z,101745.81
2023-05-21T23:23:11.120Z,101753.03
2023-05-21T23:25:37.616Z,101762.91
2023-05-21T23:28:04.479Z,101750.16
2023-05-21T23:30:31.052Z,101745.38
2023-05-21T23:32:57.729Z,101749.59
2023-05-21T23:35:24.301Z,101748.00
2023-05-21T23:37:50.878Z,101733.09
2023-05-21T23:40:17.422Z,101725.56
2023-05-21T23:42:44.026Z,101722.88
2023-05-21T23:45:11.014Z,101724.41
2023-05-21T23:47:37.667Z,101716.94
2023-05-21T23:50:04.648Z,101707.31
2023-05-21T23:52:31.335Z,101692.69
2023-05-21T23:54:58.019Z,101697.19
2023-05-21T23:57:24.567Z,101706.47
2023-05-21T23:59:51.121Z,101702.22
